sensor_id;sensor_type;location;lat;lon;timestamp;temperature;humidity
64549;DHT22;49838;51.798;10.954;2023-03-01T07:41:09;6.90;40.70
64549;DHT22;49838;51.798;10.954;2023-03-01T07:43:36;7.10;41.50
64549;DHT22;49838;51.798;10.954;2023-03-01T07:46:04;7.70;41.70
64549;DHT22;49838;51.798;10.954;2023-03-01T07:48:32;8.40;41.50
64549;DHT22;49838;51.798;10.954;2023-03-01T07:51:00;9.10;41.10
64549;DHT22;49838;51.798;10.954;2023-03-01T07:53:28;10.00;40.10
64549;DHT22;49838;51.798;10.954;2023-03-01T07:56:00;10.70;39.70
64549;DHT22;49838;51.798;10.954;2023-03-01T07:58:30;11.40;39.40
64549;DHT22;49838;51.798;10.954;2023-03-01T08:01:00;12.00;38.80
64549;DHT22;49838;51.798;10.954;2023-03-01T08:03:31;12.70;38.40
64549;DHT22;49838;51.798;10.954;2023-03-01T08:05:59;13.30;38.20
64549;DHT22;49838;51.798;10.954;2023-03-01T08:08:27;13.80;38.50
64549;DHT22;49838;51.798;10.954;2023-03-01T08:10:55;14.30;37.80
64549;DHT22;49838;51.798;10.954;2023-03-01T08:13:24;14.90;38.10
64549;DHT22;49838;51.798;10.954;2023-03-01T08:15:53;15.60;38.60
64549;DHT22;49838;51.798;10.954;2023-03-01T08:18:20;16.20;38.70
64549;DHT22;49838;51.798;10.954;2023-03-01T08:20:48;16.90;39.30
64549;DHT22;49838;51.798;10.954;2023-03-01T08:23:15;17.50;38.50
64549;DHT22;49838;51.798;10.954;2023-03-01T08:25:42;18.10;38.60
64549;DHT22;49838;51.798;10.954;2023-03-01T08:28:09;18.70;37.80
64549;DHT22;49838;51.798;10.954;2023-03-01T08:30:37;19.20;37.10
64549;DHT22;49838;51.798;10.954;2023-03-01T08:33:05;19.70;37.30
64549;DHT22;49838;51.798;10.954;2023-03-01T08:35:32;20.20;37.20
64549;DHT22;49838;51.798;10.954;2023-03-01T08:38:00;20.60;36.30
64549;DHT22;49838;51.798;10.954;2023-03-01T08:40:27;20.90;35.90
64549;DHT22;49838;51.798;10.954;2023-03-01T08:42:54;21.20;36.10
64549;DHT22;49838;51.798;10.954;2023-03-01T08:45:21;21.60;35.80
64549;DHT22;49838;51.798;10.954;2023-03-01T08:47:51;21.90;35.90
64549;DHT22;49838;51.798;10.954;2023-03-01T08:50:20;22.30;36.10
64549;DHT22;49838;51.798;10.954;2023-03-01T08:52:48;22.70;36.00
64549;DHT22;49838;51.798;10.954;2023-03-01T08:55:15;23.00;36.00
64549;DHT22;49838;51.798;10.954;2023-03-01T08:57:43;23.30;35.50
64549;DHT22;49838;51.798;10.954;2023-03-01T09:00:11;23.50;34.80
64549;DHT22;49838;51.798;10.954;2023-03-01T09:02:41;23.70;35.50
64549;DHT22;49838;51.798;10.954;2023-03-01T09:05:08;24.00;35.60
64549;DHT22;49838;51.798;10.954;2023-03-01T09:07:37;24.30;35.00
64549;DHT22;49838;51.798;10.954;2023-03-01T09:10:04;24.50;35.30
64549;DHT22;49838;51.798;10.954;2023-03-01T09:12:32;24.70;34.10
64549;DHT22;49838;51.798;10.954;2023-03-01T09:14:59;24.90;34.60
64549;DHT22;49838;51.798;10.954;2023-03-01T09:17:27;25.10;34.40
64549;DHT22;49838;51.798;10.954;2023-03-01T09:19:54;25.30;33.70
64549;DHT22;49838;51.798;10.954;2023-03-01T09:22:21;25.40;34.40
64549;DHT22;49838;51.798;10.954;2023-03-01T09:24:50;25.60;34.20
64549;DHT22;49838;51.798;10.954;2023-03-01T09:27:17;25.80;34.30
64549;DHT22;49838;51.798;10.954;2023-03-01T09:29:44;26.10;34.40
64549;DHT22;49838;51.798;10.954;2023-03-01T09:32:12;26.30;33.90
64549;DHT22;49838;51.798;10.954;2023-03-01T09:34:39;26.50;34.10
64549;DHT22;49838;51.798;10.954;2023-03-01T09:37:20;26.80;33.60
64549;DHT22;49838;51.798;10.954;2023-03-01T09:39:47;27.00;32.90
64549;DHT22;49838;51.798;10.954;2023-03-01T09:42:16;27.10;32.60
64549;DHT22;49838;51.798;10.954;2023-03-01T09:44:44;27.20;32.80
64549;DHT22;49838;51.798;10.954;2023-03-01T09:47:16;27.30;33.20
64549;DHT22;49838;51.798;10.954;2023-03-01T09:49:48;27.20;32.40
64549;DHT22;49838;51.798;10.954;2023-03-01T09:52:26;27.40;32.80
64549;DHT22;49838;51.798;10.954;2023-03-01T09:54:59;27.50;32.60
64549;DHT22;49838;51.798;10.954;2023-03-01T09:57:28;27.70;32.60
64549;DHT22;49838;51.798;10.954;2023-03-01T10:02:57;27.90;32.00
64549;DHT22;49838;51.798;10.954;2023-03-01T10:05:33;27.90;31.90
64549;DHT22;49838;51.798;10.954;2023-03-01T10:08:10;28.10;31.70
64549;DHT22;49838;51.798;10.954;2023-03-01T10:10:50;28.30;31.80
64549;DHT22;49838;51.798;10.954;2023-03-01T10:13:19;28.40;31.40
64549;DHT22;49838;51.798;10.954;2023-03-01T10:15:52;28.40;31.00
64549;DHT22;49838;51.798;10.954;2023-03-01T10:18:24;28.50;31.30
64549;DHT22;49838;51.798;10.954;2023-03-01T10:20:55;28.30;30.80
64549;DHT22;49838;51.798;10.954;2023-03-01T10:23:26;28.10;29.40
64549;DHT22;49838;51.798;10.954;2023-03-01T10:26:00;27.70;28.80
64549;DHT22;49838;51.798;10.954;2023-03-01T10:28:44;27.50;29.70
64549;DHT22;49838;51.798;10.954;2023-03-01T10:31:22;27.20;29.30
64549;DHT22;49838;51.798;10.954;2023-03-01T10:33:53;27.10;28.70
64549;DHT22;49838;51.798;10.954;2023-03-01T10:36:23;26.90;28.80
64549;DHT22;49838;51.798;10.954;2023-03-01T10:38:51;26.70;28.30
64549;DHT22;49838;51.798;10.954;2023-03-01T10:41:22;26.50;28.20
64549;DHT22;49838;51.798;10.954;2023-03-01T10:43:52;26.30;28.60
64549;DHT22;49838;51.798;10.954;2023-03-01T10:46:24;26.20;29.60
64549;DHT22;49838;51.798;10.954;2023-03-01T10:49:05;26.10;28.90
64549;DHT22;49838;51.798;10.954;2023-03-01T10:51:34;25.90;28.60
64549;DHT22;49838;51.798;10.954;2023-03-01T10:54:01;25.80;27.40
64549;DHT22;49838;51.798;10.954;2023-03-01T10:56:31;25.60;27.70
64549;DHT22;49838;51.798;10.954;2023-03-01T10:59:19;25.30;28.20
64549;DHT22;49838;51.798;10.954;2023-03-01T11:02:01;25.30;29.20
64549;DHT22;49838;51.798;10.954;2023-03-01T11:04:55;25.30;29.40
64549;DHT22;49838;51.798;10.954;2023-03-01T11:07:24;25.30;29.30
64549;DHT22;49838;51.798;10.954;2023-03-01T11:09:52;25.30;29.80
64549;DHT22;49838;51.798;10.954;2023-03-01T11:12:20;25.30;29.50
64549;DHT22;49838;51.798;10.954;2023-03-01T11:14:48;25.30;28.50
64549;DHT22;49838;51.798;10.954;2023-03-01T11:17:21;25.20;28.70
64549;DHT22;49838;51.798;10.954;2023-03-01T11:20:01;25.20;29.70
64549;DHT22;49838;51.798;10.954;2023-03-01T11:22:33;25.20;29.30
64549;DHT22;49838;51.798;10.954;2023-03-01T11:25:02;25.20;29.80
64549;DHT22;49838;51.798;10.954;2023-03-01T11:27:32;25.20;29.50
64549;DHT22;49838;51.798;10.954;2023-03-01T11:30:04;25.20;29.60
64549;DHT22;49838;51.798;10.954;2023-03-01T11:32:39;25.20;28.10
64549;DHT22;49838;51.798;10.954;2023-03-01T11:35:10;25.10;28.50
64549;DHT22;49838;51.798;10.954;2023-03-01T11:37:47;25.00;29.00
64549;DHT22;49838;51.798;10.954;2023-03-01T11:40:27;25.00;29.20
64549;DHT22;49838;51.798;10.954;2023-03-01T11:43:03;24.80;27.40
64549;DHT22;49838;51.798;10.954;2023-03-01T11:45:39;24.40;26.50
64549;DHT22;49838;51.798;10.954;2023-03-01T11:48:21;23.80;26.70
64549;DHT22;49838;51.798;10.954;2023-03-01T11:51:00;23.20;26.40
64549;DHT22;49838;51.798;10.954;2023-03-01T11:53:41;22.30;24.50
64549;DHT22;49838;51.798;10.954;2023-03-01T11:56:32;21.40;24.30
64549;DHT22;49838;51.798;10.954;2023-03-01T11:59:16;20.40;24.40
64549;DHT22;49838;51.798;10.954;2023-03-01T12:02:07;19.60;24.80
64549;DHT22;49838;51.798;10.954;2023-03-01T12:04:54;18.90;24.80
64549;DHT22;49838;51.798;10.954;2023-03-01T12:07:35;18.20;24.60
64549;DHT22;49838;51.798;10.954;2023-03-01T12:10:20;17.60;24.70
64549;DHT22;49838;51.798;10.954;2023-03-01T12:12:56;17.10;24.90
64549;DHT22;49838;51.798;10.954;2023-03-01T12:15:37;16.70;25.00
64549;DHT22;49838;51.798;10.954;2023-03-01T12:21:20;15.90;25.60
64549;DHT22;49838;51.798;10.954;2023-03-01T12:24:01;15.60;25.90
64549;DHT22;49838;51.798;10.954;2023-03-01T12:26:43;15.40;26.10
64549;DHT22;49838;51.798;10.954;2023-03-01T12:29:22;15.20;25.80
64549;DHT22;49838;51.798;10.954;2023-03-01T12:32:02;15.00;26.00
64549;DHT22;49838;51.798;10.954;2023-03-01T12:34:45;14.70;26.00
64549;DHT22;49838;51.798;10.954;2023-03-01T12:37:25;14.60;25.60
64549;DHT22;49838;51.798;10.954;2023-03-01T12:40:05;14.40;25.70
64549;DHT22;49838;51.798;10.954;2023-03-01T12:42:48;14.20;25.60
64549;DHT22;49838;51.798;10.954;2023-03-01T12:45:32;14.00;25.60
64549;DHT22;49838;51.798;10.954;2023-03-01T12:48:21;13.90;25.80
64549;DHT22;49838;51.798;10.954;2023-03-01T12:50:59;13.80;25.70
64549;DHT22;49838;51.798;10.954;2023-03-01T12:53:31;13.60;25.80
64549;DHT22;49838;51.798;10.954;2023-03-01T12:56:04;13.60;26.10
64549;DHT22;49838;51.798;10.954;2023-03-01T12:58:35;13.60;26.00
64549;DHT22;49838;51.798;10.954;2023-03-01T13:01:10;13.50;25.90
64549;DHT22;49838;51.798;10.954;2023-03-01T13:03:58;13.50;25.70
64549;DHT22;49838;51.798;10.954;2023-03-01T13:06:38;13.40;25.30
64549;DHT22;49838;51.798;10.954;2023-03-01T13:09:14;13.30;25.60
64549;DHT22;49838;51.798;10.954;2023-03-01T13:11:51;13.10;25.80
64549;DHT22;49838;51.798;10.954;2023-03-01T13:14:34;13.00;25.90
64549;DHT22;49838;51.798;10.954;2023-03-01T13:17:03;13.00;26.10
64549;DHT22;49838;51.798;10.954;2023-03-01T13:19:31;12.90;26.00
64549;DHT22;49838;51.798;10.954;2023-03-01T13:22:24;12.90;26.00
64549;DHT22;49838;51.798;10.954;2023-03-01T13:25:00;12.90;25.80
64549;DHT22;49838;51.798;10.954;2023-03-01T13:27:30;12.90;26.00
64549;DHT22;49838;51.798;10.954;2023-03-01T13:29:58;12.80;26.00
64549;DHT22;49838;51.798;10.954;2023-03-01T13:32:29;12.80;26.20
64549;DHT22;49838;51.798;10.954;2023-03-01T13:34:59;12.80;26.30
64549;DHT22;49838;51.798;10.954;2023-03-01T13:37:32;12.70;26.40
64549;DHT22;49838;51.798;10.954;2023-03-01T13:40:04;12.70;26.50
64549;DHT22;49838;51.798;10.954;2023-03-01T13:42:52;12.60;26.50
64549;DHT22;49838;51.798;10.954;2023-03-01T13:45:21;12.60;26.60
64549;DHT22;49838;51.798;10.954;2023-03-01T13:47:53;12.50;26.70
64549;DHT22;49838;51.798;10.954;2023-03-01T13:50:24;12.50;26.80
64549;DHT22;49838;51.798;10.954;2023-03-01T13:52:56;12.50;26.60
64549;DHT22;49838;51.798;10.954;2023-03-01T13:55:27;12.60;26.60
64549;DHT22;49838;51.798;10.954;2023-03-01T13:58:03;12.60;26.50
64549;DHT22;49838;51.798;10.954;2023-03-01T14:00:41;12.50;26.40
64549;DHT22;49838;51.798;10.954;2023-03-01T14:03:10;12.50;26.30
64549;DHT22;49838;51.798;10.954;2023-03-01T14:05:39;12.40;26.40
64549;DHT22;49838;51.798;10.954;2023-03-01T14:08:19;12.40;26.50
64549;DHT22;49838;51.798;10.954;2023-03-01T14:14:07;12.40;26.60
64549;DHT22;49838;51.798;10.954;2023-03-01T14:16:43;12.40;26.60
64549;DHT22;49838;51.798;10.954;2023-03-01T14:19:21;12.30;26.60
64549;DHT22;49838;51.798;10.954;2023-03-01T14:21:58;12.20;26.60
64549;DHT22;49838;51.798;10.954;2023-03-01T14:24:29;12.30;26.80
64549;DHT22;49838;51.798;10.954;2023-03-01T14:27:00;12.30;27.10
64549;DHT22;49838;51.798;10.954;2023-03-01T14:29:35;12.20;26.60
64549;DHT22;49838;51.798;10.954;2023-03-01T14:32:10;12.20;26.80
64549;DHT22;49838;51.798;10.954;2023-03-01T14:34:43;12.30;26.80
64549;DHT22;49838;51.798;10.954;2023-03-01T14:37:17;12.30;26.70
64549;DHT22;49838;51.798;10.954;2023-03-01T14:39:48;12.30;26.60
64549;DHT22;49838;51.798;10.954;2023-03-01T14:42:16;12.20;26.60
64549;DHT22;49838;51.798;10.954;2023-03-01T14:44:45;12.20;26.70
64549;DHT22;49838;51.798;10.954;2023-03-01T14:47:15;12.10;26.60
64549;DHT22;49838;51.798;10.954;2023-03-01T14:49:46;12.10;26.70
64549;DHT22;49838;51.798;10.954;2023-03-01T14:52:18;12.10;26.90
64549;DHT22;49838;51.798;10.954;2023-03-01T14:54:50;12.00;26.90
64549;DHT22;49838;51.798;10.954;2023-03-01T14:57:20;12.00;26.90
64549;DHT22;49838;51.798;10.954;2023-03-01T14:59:49;12.00;26.90
64549;DHT22;49838;51.798;10.954;2023-03-01T15:02:20;12.00;26.90
64549;DHT22;49838;51.798;10.954;2023-03-01T15:04:50;12.00;27.10
64549;DHT22;49838;51.798;10.954;2023-03-01T15:07:19;11.90;27.10
64549;DHT22;49838;51.798;10.954;2023-03-01T15:09:46;12.00;27.10
64549;DHT22;49838;51.798;10.954;2023-03-01T15:12:35;11.90;27.00
64549;DHT22;49838;51.798;10.954;2023-03-01T15:17:49;11.90;27.20
64549;DHT22;49838;51.798;10.954;2023-03-01T15:20:20;11.90;27.10
64549;DHT22;49838;51.798;10.954;2023-03-01T15:22:51;11.90;27.20
64549;DHT22;49838;51.798;10.954;2023-03-01T15:25:21;11.80;27.30
64549;DHT22;49838;51.798;10.954;2023-03-01T15:27:51;11.80;27.30
64549;DHT22;49838;51.798;10.954;2023-03-01T15:30:21;11.80;27.10
64549;DHT22;49838;51.798;10.954;2023-03-01T15:35:47;11.70;27.10
64549;DHT22;49838;51.798;10.954;2023-03-01T15:38:23;11.80;27.10
64549;DHT22;49838;51.798;10.954;2023-03-01T15:40:56;11.70;27.00
64549;DHT22;49838;51.798;10.954;2023-03-01T15:43:39;11.70;27.10
64549;DHT22;49838;51.798;10.954;2023-03-01T15:46:14;11.70;27.20
64549;DHT22;49838;51.798;10.954;2023-03-01T15:48:46;11.60;27.20
64549;DHT22;49838;51.798;10.954;2023-03-01T15:51:15;11.50;27.20
64549;DHT22;49838;51.798;10.954;2023-03-01T15:53:43;11.40;27.30
64549;DHT22;49838;51.798;10.954;2023-03-01T15:56:18;11.50;27.40
64549;DHT22;49838;51.798;10.954;2023-03-01T15:58:45;11.40;27.30
64549;DHT22;49838;51.798;10.954;2023-03-01T16:01:13;11.40;27.40
64549;DHT22;49838;51.798;10.954;2023-03-01T16:03:42;11.30;27.40
64549;DHT22;49838;51.798;10.954;2023-03-01T16:06:10;11.30;27.40
64549;DHT22;49838;51.798;10.954;2023-03-01T16:08:37;11.20;27.50
64549;DHT22;49838;51.798;10.954;2023-03-01T16:11:08;11.20;27.50
64549;DHT22;49838;51.798;10.954;2023-03-01T16:13:42;11.10;27.40
64549;DHT22;49838;51.798;10.954;2023-03-01T16:16:11;11.10;27.50
64549;DHT22;49838;51.798;10.954;2023-03-01T16:18:42;11.00;27.40
64549;DHT22;49838;51.798;10.954;2023-03-01T16:21:12;11.00;27.50
64549;DHT22;49838;51.798;10.954;2023-03-01T16:23:42;10.90;27.50
64549;DHT22;49838;51.798;10.954;2023-03-01T16:26:10;10.90;27.50
64549;DHT22;49838;51.798;10.954;2023-03-01T16:28:39;10.80;27.40
64549;DHT22;49838;51.798;10.954;2023-03-01T16:31:08;10.80;27.50
64549;DHT22;49838;51.798;10.954;2023-03-01T16:33:36;10.70;27.40
64549;DHT22;49838;51.798;10.954;2023-03-01T16:36:07;10.60;27.40
64549;DHT22;49838;51.798;10.954;2023-03-01T16:38:35;10.60;27.50
64549;DHT22;49838;51.798;10.954;2023-03-01T16:41:04;10.60;27.50
64549;DHT22;49838;51.798;10.954;2023-03-01T16:43:33;10.50;27.40
64549;DHT22;49838;51.798;10.954;2023-03-01T16:46:00;10.50;27.40
64549;DHT22;49838;51.798;10.954;2023-03-01T16:48:31;10.50;27.30
64549;DHT22;49838;51.798;10.954;2023-03-01T16:50:58;10.50;27.30
64549;DHT22;49838;51.798;10.954;2023-03-01T16:53:26;10.50;27.20
64549;DHT22;49838;51.798;10.954;2023-03-01T16:55:54;10.40;27.10
64549;DHT22;49838;51.798;10.954;2023-03-01T16:58:22;10.40;27.10
64549;DHT22;49838;51.798;10.954;2023-03-01T17:00:50;10.40;27.10
64549;DHT22;49838;51.798;10.954;2023-03-01T17:03:19;10.40;27.10
64549;DHT22;49838;51.798;10.954;2023-03-01T17:05:48;10.30;27.00
64549;DHT22;49838;51.798;10.954;2023-03-01T17:08:17;10.30;27.00
64549;DHT22;49838;51.798;10.954;2023-03-01T17:10:45;10.30;27.00
64549;DHT22;49838;51.798;10.954;2023-03-01T17:13:12;10.30;26.90
64549;DHT22;49838;51.798;10.954;2023-03-01T17:15:40;10.20;26.90
64549;DHT22;49838;51.798;10.954;2023-03-01T17:18:08;10.20;26.80
64549;DHT22;49838;51.798;10.954;2023-03-01T17:20:35;10.20;26.80
64549;DHT22;49838;51.798;10.954;2023-03-01T17:23:04;10.10;26.80
64549;DHT22;49838;51.798;10.954;2023-03-01T17:25:31;10.10;26.80
64549;DHT22;49838;51.798;10.954;2023-03-01T17:27:59;10.10;26.80
64549;DHT22;49838;51.798;10.954;2023-03-01T17:30:26;10.00;26.70
64549;DHT22;49838;51.798;10.954;2023-03-01T17:32:53;9.90;27.30
64549;DHT22;49838;51.798;10.954;2023-03-01T17:35:21;9.90;27.40
64549;DHT22;49838;51.798;10.954;2023-03-01T17:37:48;9.80;27.30
64549;DHT22;49838;51.798;10.954;2023-03-01T17:40:17;9.80;27.30
64549;DHT22;49838;51.798;10.954;2023-03-01T17:42:46;9.70;27.30
64549;DHT22;49838;51.798;10.954;2023-03-01T17:45:13;9.60;27.20
64549;DHT22;49838;51.798;10.954;2023-03-01T17:47:40;9.50;27.20
64549;DHT22;49838;51.798;10.954;2023-03-01T17:50:08;9.50;27.20
64549;DHT22;49838;51.798;10.954;2023-03-01T17:52:37;9.50;27.20
64549;DHT22;49838;51.798;10.954;2023-03-01T17:55:06;9.40;27.20
64549;DHT22;49838;51.798;10.954;2023-03-01T17:57:36;9.40;27.20
64549;DHT22;49838;51.798;10.954;2023-03-01T18:00:09;9.30;27.20
64549;DHT22;49838;51.798;10.954;2023-03-01T18:02:39;9.30;27.20
64549;DHT22;49838;51.798;10.954;2023-03-01T18:05:06;9.20;27.10
64549;DHT22;49838;51.798;10.954;2023-03-01T18:07:34;9.20;27.20
64549;DHT22;49838;51.798;10.954;2023-03-01T18:10:02;9.10;27.10
64549;DHT22;49838;51.798;10.954;2023-03-01T18:12:30;9.00;27.10
64549;DHT22;49838;51.798;10.954;2023-03-01T18:14:59;9.00;27.10
64549;DHT22;49838;51.798;10.954;2023-03-01T18:17:26;9.00;27.10
64549;DHT22;49838;51.798;10.954;2023-03-01T18:19:54;8.90;27.10
64549;DHT22;49838;51.798;10.954;2023-03-01T18:22:22;8.80;27.00
64549;DHT22;49838;51.798;10.954;2023-03-01T18:24:50;8.80;27.10
64549;DHT22;49838;51.798;10.954;2023-03-01T18:27:17;8.80;27.10
64549;DHT22;49838;51.798;10.954;2023-03-01T18:29:45;8.70;27.10
64549;DHT22;49838;51.798;10.954;2023-03-01T18:32:13;8.70;27.10
64549;DHT22;49838;51.798;10.954;2023-03-01T18:34:41;8.60;27.00
64549;DHT22;49838;51.798;10.954;2023-03-01T18:37:08;8.60;27.10
64549;DHT22;49838;51.798;10.954;2023-03-01T18:39:35;8.50;27.00
64549;DHT22;49838;51.798;10.954;2023-03-01T18:42:02;8.50;27.10
64549;DHT22;49838;51.798;10.954;2023-03-01T18:44:30;8.40;27.00
64549;DHT22;49838;51.798;10.954;2023-03-01T18:46:57;8.40;27.10
64549;DHT22;49838;51.798;10.954;2023-03-01T18:49:26;8.40;27.60
64549;DHT22;49838;51.798;10.954;2023-03-01T18:51:53;8.30;27.00
64549;DHT22;49838;51.798;10.954;2023-03-01T18:54:21;8.30;27.10
64549;DHT22;49838;51.798;10.954;2023-03-01T18:56:48;8.30;27.10
64549;DHT22;49838;51.798;10.954;2023-03-01T18:59:16;8.20;27.10
64549;DHT22;49838;51.798;10.954;2023-03-01T19:01:43;8.20;27.10
64549;DHT22;49838;51.798;10.954;2023-03-01T19:04:10;8.20;27.10
64549;DHT22;49838;51.798;10.954;2023-03-01T19:06:39;8.20;27.10
64549;DHT22;49838;51.798;10.954;2023-03-01T19:09:07;8.10;27.10
64549;DHT22;49838;51.798;10.954;2023-03-01T19:11:36;8.10;27.60
64549;DHT22;49838;51.798;10.954;2023-03-01T19:14:03;8.00;27.10
64549;DHT22;49838;51.798;10.954;2023-03-01T19:16:31;8.10;27.10
64549;DHT22;49838;51.798;10.954;2023-03-01T19:19:02;8.00;27.10
64549;DHT22;49838;51.798;10.954;2023-03-01T19:21:33;8.00;27.10
64549;DHT22;49838;51.798;10.954;2023-03-01T19:24:02;8.00;27.00
64549;DHT22;49838;51.798;10.954;2023-03-01T19:26:30;8.00;27.00
64549;DHT22;49838;51.798;10.954;2023-03-01T19:28:57;8.00;27.10
64549;DHT22;49838;51.798;10.954;2023-03-01T19:31:26;8.00;27.10
64549;DHT22;49838;51.798;10.954;2023-03-01T19:33:55;7.90;26.90
64549;DHT22;49838;51.798;10.954;2023-03-01T19:36:24;7.90;27.00
64549;DHT22;49838;51.798;10.954;2023-03-01T19:38:58;7.90;27.00
64549;DHT22;49838;51.798;10.954;2023-03-01T19:41:27;7.90;27.00
64549;DHT22;49838;51.798;10.954;2023-03-01T19:43:55;7.90;27.00
64549;DHT22;49838;51.798;10.954;2023-03-01T19:46:23;7.90;26.90
64549;DHT22;49838;51.798;10.954;2023-03-01T19:48:51;7.90;27.00
64549;DHT22;49838;51.798;10.954;2023-03-01T19:51:19;7.80;26.90
64549;DHT22;49838;51.798;10.954;2023-03-01T19:53:47;7.80;27.00
64549;DHT22;49838;51.798;10.954;2023-03-01T19:56:14;7.70;26.90
64549;DHT22;49838;51.798;10.954;2023-03-01T19:58:43;7.70;26.90
64549;DHT22;49838;51.798;10.954;2023-03-01T20:01:13;7.70;26.90
64549;DHT22;49838;51.798;10.954;2023-03-01T20:03:41;7.70;27.00
64549;DHT22;49838;51.798;10.954;2023-03-01T20:06:10;7.70;27.00
64549;DHT22;49838;51.798;10.954;2023-03-01T20:08:40;7.70;26.90
64549;DHT22;49838;51.798;10.954;2023-03-01T20:11:10;7.60;26.90
64549;DHT22;49838;51.798;10.954;2023-03-01T20:13:39;7.60;26.90
64549;DHT22;49838;51.798;10.954;2023-03-01T20:16:08;7.60;26.90
64549;DHT22;49838;51.798;10.954;2023-03-01T20:18:38;7.60;26.90
64549;DHT22;49838;51.798;10.954;2023-03-01T20:21:06;7.60;27.00
64549;DHT22;49838;51.798;10.954;2023-03-01T20:23:34;7.60;26.90
64549;DHT22;49838;51.798;10.954;2023-03-01T20:26:02;7.60;26.90
64549;DHT22;49838;51.798;10.954;2023-03-01T20:28:35;7.60;26.90
64549;DHT22;49838;51.798;10.954;2023-03-01T20:31:05;7.60;27.00
64549;DHT22;49838;51.798;10.954;2023-03-01T20:33:35;7.60;27.00
64549;DHT22;49838;51.798;10.954;2023-03-01T20:36:04;7.60;27.10
64549;DHT22;49838;51.798;10.954;2023-03-01T20:38:34;7.60;27.10
64549;DHT22;49838;51.798;10.954;2023-03-01T20:41:03;7.60;27.10
64549;DHT22;49838;51.798;10.954;2023-03-01T20:43:33;7.60;27.10
64549;DHT22;49838;51.798;10.954;2023-03-01T20:46:02;7.60;27.10
64549;DHT22;49838;51.798;10.954;2023-03-01T20:48:32;7.70;27.20
64549;DHT22;49838;51.798;10.954;2023-03-01T20:51:04;7.70;27.20
64549;DHT22;49838;51.798;10.954;2023-03-01T20:53:32;7.70;27.20
64549;DHT22;49838;51.798;10.954;2023-03-01T20:56:00;7.70;27.10
64549;DHT22;49838;51.798;10.954;2023-03-01T20:58:28;7.70;27.10
64549;DHT22;49838;51.798;10.954;2023-03-01T21:00:57;7.70;27.30
64549;DHT22;49838;51.798;10.954;2023-03-01T21:03:24;7.70;27.10
64549;DHT22;49838;51.798;10.954;2023-03-01T21:05:53;7.70;27.10
64549;DHT22;49838;51.798;10.954;2023-03-01T21:08:22;7.70;27.10
64549;DHT22;49838;51.798;10.954;2023-03-01T21:10:50;7.70;27.10
64549;DHT22;49838;51.798;10.954;2023-03-01T21:13:17;7.60;27.10
64549;DHT22;49838;51.798;10.954;2023-03-01T21:15:50;7.60;27.00
64549;DHT22;49838;51.798;10.954;2023-03-01T21:18:18;7.60;27.00
64549;DHT22;49838;51.798;10.954;2023-03-01T21:20:45;7.60;27.10
64549;DHT22;49838;51.798;10.954;2023-03-01T21:23:12;7.50;27.00
64549;DHT22;49838;51.798;10.954;2023-03-01T21:25:41;7.50;27.10
64549;DHT22;49838;51.798;10.954;2023-03-01T21:28:10;7.50;27.00
64549;DHT22;49838;51.798;10.954;2023-03-01T21:30:37;7.40;27.00
64549;DHT22;49838;51.798;10.954;2023-03-01T21:33:04;7.40;27.10
64549;DHT22;49838;51.798;10.954;2023-03-01T21:35:33;7.40;27.10
64549;DHT22;49838;51.798;10.954;2023-03-01T21:38:00;7.40;27.10
64549;DHT22;49838;51.798;10.954;2023-03-01T21:40:28;7.40;27.10
64549;DHT22;49838;51.798;10.954;2023-03-01T21:42:59;7.40;27.10
64549;DHT22;49838;51.798;10.954;2023-03-01T21:45:28;7.40;27.10
64549;DHT22;49838;51.798;10.954;2023-03-01T21:48:00;7.40;27.10
64549;DHT22;49838;51.798;10.954;2023-03-01T21:50:27;7.40;27.10
64549;DHT22;49838;51.798;10.954;2023-03-01T21:52:54;7.40;27.00
64549;DHT22;49838;51.798;10.954;2023-03-01T21:55:24;7.40;27.10
64549;DHT22;49838;51.798;10.954;2023-03-01T21:57:51;7.40;27.00
64549;DHT22;49838;51.798;10.954;2023-03-01T22:00:20;7.40;27.00
64549;DHT22;49838;51.798;10.954;2023-03-01T22:02:48;7.30;26.90
64549;DHT22;49838;51.798;10.954;2023-03-01T22:05:16;7.30;26.90
64549;DHT22;49838;51.798;10.954;2023-03-01T22:07:49;7.30;26.90
64549;DHT22;49838;51.798;10.954;2023-03-01T22:10:16;7.30;26.90
64549;DHT22;49838;51.798;10.954;2023-03-01T22:12:52;7.20;26.90
64549;DHT22;49838;51.798;10.954;2023-03-01T22:15:20;7.20;26.90
64549;DHT22;49838;51.798;10.954;2023-03-01T22:17:49;7.20;26.90
64549;DHT22;49838;51.798;10.954;2023-03-01T22:20:17;7.20;27.00
64549;DHT22;49838;51.798;10.954;2023-03-01T22:22:48;7.10;26.90
64549;DHT22;49838;51.798;10.954;2023-03-01T22:25:15;7.10;26.90
64549;DHT22;49838;51.798;10.954;2023-03-01T22:27:42;7.10;26.90
64549;DHT22;49838;51.798;10.954;2023-03-01T22:30:12;7.10;26.90
64549;DHT22;49838;51.798;10.954;2023-03-01T22:32:41;7.10;26.90
64549;DHT22;49838;51.798;10.954;2023-03-01T22:35:09;7.10;26.90
64549;DHT22;49838;51.798;10.954;2023-03-01T22:37:37;7.00;26.90
64549;DHT22;49838;51.798;10.954;2023-03-01T22:40:05;7.00;26.90
64549;DHT22;49838;51.798;10.954;2023-03-01T22:42:36;7.00;26.90
64549;DHT22;49838;51.798;10.954;2023-03-01T22:45:04;7.00;26.90
64549;DHT22;49838;51.798;10.954;2023-03-01T22:47:32;7.00;26.90
64549;DHT22;49838;51.798;10.954;2023-03-01T22:50:04;7.00;26.90
64549;DHT22;49838;51.798;10.954;2023-03-01T22:52:34;6.90;26.90
64549;DHT22;49838;51.798;10.954;2023-03-01T22:55:01;6.90;26.90
64549;DHT22;49838;51.798;10.954;2023-03-01T22:57:31;6.90;26.90
64549;DHT22;49838;51.798;10.954;2023-03-01T22:59:58;6.80;26.80
64549;DHT22;49838;51.798;10.954;2023-03-01T23:02:28;6.80;26.90
64549;DHT22;49838;51.798;10.954;2023-03-01T23:04:55;6.80;27.00
64549;DHT22;49838;51.798;10.954;2023-03-01T23:07:24;6.70;27.00
64549;DHT22;49838;51.798;10.954;2023-03-01T23:09:51;6.70;27.00
64549;DHT22;49838;51.798;10.954;2023-03-01T23:12:21;6.70;27.00
64549;DHT22;49838;51.798;10.954;2023-03-01T23:14:48;6.70;27.00
64549;DHT22;49838;51.798;10.954;2023-03-01T23:17:16;6.70;27.00
64549;DHT22;49838;51.798;10.954;2023-03-01T23:19:43;6.70;27.00
64549;DHT22;49838;51.798;10.954;2023-03-01T23:22:10;6.70;27.00
64549;DHT22;49838;51.798;10.954;2023-03-01T23:24:39;6.70;27.10
64549;DHT22;49838;51.798;10.954;2023-03-01T23:27:06;6.70;27.00
64549;DHT22;49838;51.798;10.954;2023-03-01T23:29:33;6.80;27.10
64549;DHT22;49838;51.798;10.954;2023-03-01T23:32:01;6.80;27.00
64549;DHT22;49838;51.798;10.954;2023-03-01T23:34:29;6.80;27.00
64549;DHT22;49838;51.798;10.954;2023-03-01T23:36:56;6.80;27.10
64549;DHT22;49838;51.798;10.954;2023-03-01T23:39:23;6.80;27.00